Time;durP1;ratioP1;P1;durP2;ratioP2;P2;SDS_P1;SDS_P2;PMS_P1;PMS_P2;Temp;Humidity;BMP_temperature;BMP_pressure;BME280_temperature;BME280_humidity;BME280_pressure;Samples;Min_cycle;Max_cycle;Signal;HPM_P1;HPM_P2
2023/11/09 00:01:15;;;;;;;0.90;0.60;;;7.20;1.00;;;7.13;97.92;100389.09;4736392;30;20695;-70
2023/11/09 00:04:12;;;;;;;2.28;0.70;;;7.20;1.00;;;7.27;97.04;100393.56;4747803;30;20594;-71
2023/11/09 00:07:16;;;;;;;3.97;1.80;;;7.30;1.00;;;7.20;98.46;100374.69;4737114;30;20204;-70
2023/11/09 00:10:06;;;;;;;0.95;0.73;;;7.30;99.90;;;7.22;98.29;100378.00;4742046;30;20236;-69
2023/11/09 00:12:58;;;;;;;1.00;0.90;;;7.30;1.00;;;7.33;96.26;100380.19;4734215;30;20256;-70
2023/11/09 00:15:47;;;;;;;4.40;0.98;;;7.30;1.00;;;7.16;97.55;100373.41;4750353;30;20284;-69
2023/11/09 00:21:37;;;;;;;1.92;1.73;;;7.30;99.90;;;7.46;96.67;100367.84;4749483;30;20619;-71
2023/11/09 00:24:24;;;;;;;2.45;0.75;;;7.30;1.00;;;7.48;96.46;100360.44;4749375;30;20239;-70
2023/11/09 00:27:22;;;;;;;3.47;1.30;;;7.40;1.00;;;7.43;95.63;100358.31;4749250;30;20216;-69
2023/11/09 00:30:11;;;;;;;0.90;0.60;;;7.40;1.00;;;7.40;95.83;100356.88;4733552;30;20281;-69
2023/11/09 00:32:52;;;;;;;1.15;0.98;;;7.40;99.90;;;7.50;95.22;100355.69;4743178;30;20208;-70
2023/11/09 00:35:39;;;;;;;1.92;1.05;;;7.50;99.90;;;7.58;95.31;100352.84;4730346;30;20212;-70
2023/11/09 00:38:42;;;;;;;2.38;1.13;;;7.50;99.90;;;7.61;95.36;100355.97;4733130;30;20289;-69
2023/11/09 00:41:29;;;;;;;2.20;0.80;;;7.50;99.90;;;7.59;95.90;100355.34;4748468;30;20216;-68
2023/11/09 00:44:15;;;;;;;0.85;0.60;;;7.60;99.90;;;7.63;94.98;100347.72;4734595;30;20224;-68
2023/11/09 00:47:07;;;;;;;0.93;0.57;;;7.60;99.90;;;7.70;94.29;100351.25;4737394;30;20291;-71
2023/11/09 00:49:53;;;;;;;2.95;0.98;;;7.60;99.90;;;7.81;94.60;100353.41;4736999;30;20192;-68
2023/11/09 00:52:48;;;;;;;1.52;0.90;;;7.70;99.90;;;7.56;95.14;100342.25;4732531;30;20641;-68
2023/11/09 00:55:37;;;;;;;1.15;0.93;;;7.60;99.90;;;7.67;94.96;100330.97;4750807;30;20599;-70
2023/11/09 00:58:25;;;;;;;2.78;1.00;;;7.70;99.90;;;7.60;94.95;100334.66;4737087;30;20277;-70
2023/11/09 01:01:08;;;;;;;1.70;1.10;;;7.60;99.90;;;7.53;95.27;100325.69;4736550;30;20204;-70
2023/11/09 01:04:12;;;;;;;2.15;0.85;;;7.60;99.90;;;7.57;95.46;100332.31;4749453;30;20311;-70
2023/11/09 01:07:13;;;;;;;0.90;0.60;;;7.60;99.90;;;7.57;95.36;100317.00;4747013;30;20274;-71
2023/11/09 01:09:50;;;;;;;1.48;0.90;;;7.60;99.90;;;7.36;96.26;100311.66;4747215;30;20214;-69
2023/11/09 01:12:22;;;;;;;2.25;0.85;;;7.50;99.90;;;7.49;96.02;100314.47;4733898;30;20207;-68
2023/11/09 01:14:56;;;;;;;1.83;0.90;;;7.50;99.90;;;7.55;95.07;100312.88;4736160;30;20313;-68
2023/11/09 01:17:27;;;;;;;1.52;1.20;;;7.50;99.90;;;7.35;96.23;100310.03;4735254;30;20204;-67
2023/11/09 01:19:58;;;;;;;1.42;0.93;;;7.50;99.90;;;7.45;98.10;100301.59;4746613;30;20242;-67
2023/11/09 01:22:28;;;;;;;1.40;1.23;;;7.40;99.90;;;7.34;97.02;100293.03;4747285;30;20572;-67
2023/11/09 01:24:58;;;;;;;3.03;1.02;;;7.40;99.90;;;7.42;96.59;100292.03;4733912;30;20212;-67
2023/11/09 01:27:31;;;;;;;1.00;0.60;;;7.40;99.90;;;7.39;96.44;100285.22;4733660;30;20645;-68
2023/11/09 01:30:02;;;;;;;1.80;1.08;;;7.40;99.90;;;7.50;96.43;100293.78;4734936;30;20215;-69
2023/11/09 01:32:34;;;;;;;1.40;0.85;;;7.50;99.90;;;7.48;96.54;100287.75;4732845;30;20200;-68
2023/11/09 01:35:06;;;;;;;1.23;1.00;;;7.50;99.90;;;7.38;96.70;100278.16;4731571;30;20237;-67
2023/11/09 01:37:36;;;;;;;1.00;0.60;;;7.40;99.90;;;7.39;97.20;100277.13;4733696;30;20212;-67
2023/11/09 01:40:08;;;;;;;2.22;1.05;;;7.40;99.90;;;7.59;96.99;100260.28;4732091;30;20212;-67
2023/11/09 01:42:42;;;;;;;2.35;1.10;;;7.50;99.90;;;7.66;96.10;100271.91;4732323;30;20647;-68
2023/11/09 01:45:12;;;;;;;1.27;0.90;;;7.50;99.90;;;7.63;96.07;100264.22;4731486;30;20561;-68
2023/11/09 01:47:44;;;;;;;17.88;1.70;;;7.60;99.90;;;7.74;95.19;100258.28;4730169;30;20227;-69
2023/11/09 01:50:15;;;;;;;3.20;1.27;;;7.60;99.90;;;7.84;94.18;100259.56;4745177;30;20228;-69
2023/11/09 01:52:46;;;;;;;1.25;0.85;;;7.70;99.90;;;7.77;94.84;100252.50;4728859;30;20311;-68
2023/11/09 01:55:17;;;;;;;4.60;1.15;;;7.70;99.90;;;7.75;94.89;100246.47;4730473;30;20677;-66
2023/11/09 01:57:51;;;;;;;1.33;1.20;;;7.70;99.90;;;7.73;94.76;100243.16;4731820;30;20204;-68
2023/11/09 02:00:22;;;;;;;1.60;0.93;;;7.70;99.90;;;7.66;95.29;100239.59;4732123;30;20295;-68
2023/11/09 02:02:54;;;;;;;1.17;0.80;;;7.70;99.90;;;7.67;95.75;100238.56;4732250;30;20236;-69
2023/11/09 02:05:25;;;;;;;1.00;0.60;;;7.60;99.90;;;7.59;95.81;100230.66;4731963;30;20345;-68
2023/11/09 02:07:56;;;;;;;1.88;1.33;;;7.60;99.90;;;7.71;94.95;100229.88;4746635;30;20204;-69
2023/11/09 02:10:29;;;;;;;0.90;0.65;;;7.60;99.90;;;7.55;95.55;100232.09;4745651;30;20667;-68
2023/11/09 02:13:01;;;;;;;1.25;1.00;;;7.60;99.90;;;7.63;95.45;100229.22;4732379;30;20223;-67
2023/11/09 02:15:32;;;;;;;3.45;0.90;;;7.60;99.90;;;7.59;95.86;100227.97;4733260;30;20311;-68
2023/11/09 02:18:02;;;;;;;2.58;0.80;;;7.60;99.90;;;7.68;96.71;100226.75;4736099;30;20215;-68
2023/11/09 02:20:33;;;;;;;1.40;1.00;;;7.60;99.90;;;7.73;95.50;100227.00;4749271;30;20622;-69
2023/11/09 02:23:07;;;;;;;1.95;0.90;;;7.70;99.90;;;7.74;95.70;100231.38;4748535;30;20228;-68
2023/11/09 02:25:40;;;;;;;1.25;0.80;;;7.70;99.90;;;7.66;95.12;100224.25;4733279;30;20275;-68
2023/11/09 02:28:13;;;;;;;1.45;0.88;;;7.70;99.90;;;7.70;95.51;100216.59;4746155;30;20578;-66
2023/11/09 02:30:44;;;;;;;1.40;1.20;;;7.70;99.90;;;7.70;95.75;100219.31;4728699;30;20208;-67
2023/11/09 02:33:15;;;;;;;1.67;1.20;;;7.70;99.90;;;7.65;95.96;100219.09;4745946;30;20489;-68
2023/11/09 02:35:47;;;;;;;0.90;0.70;;;7.60;99.90;;;7.57;96.24;100214.69;4734508;30;20216;-67
2023/11/09 02:38:17;;;;;;;1.52;0.80;;;7.60;99.90;;;7.66;95.77;100216.19;4730534;30;20216;-67
2023/11/09 02:40:49;;;;;;;1.00;0.60;;;7.60;99.90;;;7.58;96.78;100210.13;4746500;30;20215;-67
2023/11/09 02:43:19;;;;;;;1.10;0.95;;;7.60;99.90;;;7.66;96.81;100201.88;4746881;30;20576;-68
2023/11/09 02:45:49;;;;;;;1.42;0.82;;;7.60;99.90;;;7.73;95.80;100202.75;4732023;30;20594;-68
2023/11/09 02:48:20;;;;;;;1.38;1.02;;;7.60;99.90;;;7.69;95.60;100205.03;4732013;30;20540;-67
2023/11/09 02:50:51;;;;;;;1.45;0.93;;;7.60;99.90;;;7.70;96.16;100203.97;4732499;30;20254;-67
2023/11/09 02:53:22;;;;;;;2.75;0.90;;;7.70;99.90;;;7.59;96.63;100201.03;4729956;30;20658;-67
2023/11/09 02:55:53;;;;;;;1.50;0.95;;;7.60;99.90;;;7.57;97.01;100203.09;4732824;30;20311;-66
2023/11/09 02:58:24;;;;;;;0.80;0.50;;;7.50;99.90;;;7.56;96.83;100190.66;4746370;30;20216;-68
2023/11/09 03:00:57;;;;;;;1.10;0.75;;;7.50;99.90;;;7.43;97.23;100194.94;4729108;30;20208;-67
2023/11/09 03:03:28;;;;;;;1.45;1.00;;;7.50;99.90;;;7.51;97.75;100191.25;4730466;30;20243;-67
2023/11/09 03:05:59;;;;;;;1.65;1.30;;;7.50;99.90;;;7.63;96.77;100178.91;4732883;30;20208;-67
2023/11/09 03:08:30;;;;;;;1.42;1.10;;;7.50;99.90;;;7.67;96.75;100176.63;4745912;30;20236;-68
2023/11/09 03:11:02;;;;;;;1.10;0.85;;;7.60;99.90;;;7.73;96.62;100182.06;4748806;30;20685;-68
2023/11/09 03:13:34;;;;;;;3.85;1.30;;;7.60;99.90;;;7.80;96.21;100173.97;4748824;30;20239;-67
2023/11/09 03:16:04;;;;;;;1.63;1.13;;;7.70;99.90;;;7.76;95.83;100176.25;4735175;30;20244;-68
2023/11/09 03:18:34;;;;;;;1.30;0.90;;;7.70;99.90;;;7.66;95.72;100170.41;4749236;30;20586;-69
2023/11/09 03:21:04;;;;;;;0.90;0.60;;;7.70;99.90;;;7.73;96.52;100167.75;4750021;30;20211;-69
2023/11/09 03:23:39;;;;;;;1.70;1.00;;;7.60;99.90;;;7.66;95.45;100174.94;4749687;30;20231;-68
2023/11/09 03:26:13;;;;;;;1.35;0.90;;;7.60;99.90;;;7.59;95.97;100160.66;4748746;30;20204;-68
2023/11/09 03:28:44;;;;;;;0.98;0.60;;;7.60;99.90;;;7.64;95.96;100150.09;4745881;30;20216;-68
2023/11/09 03:31:14;;;;;;;1.17;0.80;;;7.60;99.90;;;7.77;95.11;100148.28;4756619;30;20246;-69
2023/11/09 03:33:44;;;;;;;0.90;0.60;;;7.70;99.90;;;7.79;95.79;100148.09;4756708;30;20251;-68
2023/11/09 03:36:18;;;;;;;1.00;0.63;;;7.70;99.90;;;7.72;94.96;100145.38;4757676;30;20247;-69
2023/11/09 03:38:49;;;;;;;1.20;0.77;;;7.70;99.90;;;7.55;95.51;100145.94;4732108;30;20227;-69
2023/11/09 03:41:22;;;;;;;1.48;1.00;;;7.60;99.90;;;7.51;96.50;100133.88;4734585;30;20234;-67
2023/11/09 03:43:54;;;;;;;1.42;0.80;;;7.60;99.90;;;7.53;96.76;100129.97;4734324;30;20231;-68
2023/11/09 03:46:25;;;;;;;2.00;1.23;;;7.60;99.90;;;7.43;96.38;100133.03;4749025;30;20208;-68
2023/11/09 03:48:55;;;;;;;0.98;0.80;;;7.50;99.90;;;7.33;97.33;100124.50;4734810;30;20192;-67
2023/11/09 03:51:27;;;;;;;1.80;0.70;;;7.40;99.90;;;7.24;97.80;100123.00;4751144;30;20204;-68
2023/11/09 03:53:57;;;;;;;3.95;0.80;;;7.40;99.90;;;7.49;96.46;100125.19;4736327;30;20224;-68
2023/11/09 03:56:30;;;;;;;0.80;0.60;;;7.40;99.90;;;7.27;97.56;100127.97;4750379;30;20728;-67
2023/11/09 03:59:00;;;;;;;1.42;0.85;;;7.40;99.90;;;7.48;98.74;100123.53;4751167;30;20236;-68
2023/11/09 04:01:31;;;;;;;1.50;0.73;;;7.40;99.90;;;7.52;97.70;100119.41;4752161;30;20258;-68
2023/11/09 04:04:01;;;;;;;1.30;1.08;;;7.50;99.90;;;7.55;97.83;100113.63;4737264;30;20228;-67
2023/11/09 04:06:32;;;;;;;2.05;0.80;;;7.50;99.90;;;7.55;98.12;100103.66;4737045;30;20698;-67
2023/11/09 04:09:05;;;;;;;1.20;1.02;;;7.50;1.00;;;7.77;96.02;100098.97;4748894;30;20830;-68
2023/11/09 04:11:38;;;;;;;3.08;1.23;;;7.60;99.90;;;7.91;94.98;100097.97;4751373;30;20260;-68
2023/11/09 04:14:09;;;;;;;2.75;1.10;;;7.80;99.90;;;7.78;95.31;100092.56;4735193;30;20572;-67
2023/11/09 04:16:39;;;;;;;1.13;0.93;;;7.70;99.90;;;7.83;95.11;100090.09;4751268;30;20228;-68
2023/11/09 04:19:09;;;;;;;1.27;0.88;;;7.70;99.90;;;8.02;94.84;100088.47;4737209;30;20247;-67
2023/11/09 04:21:40;;;;;;;0.90;0.70;;;7.80;99.90;;;7.96;94.33;100086.59;4748916;30;20711;-68
2023/11/09 04:24:11;;;;;;;1.05;0.70;;;7.90;99.90;;;7.85;95.38;100077.22;4751632;30;20233;-67
2023/11/09 04:26:43;;;;;;;1.30;0.82;;;7.80;99.90;;;8.00;94.32;100075.19;4740384;30;20688;-68
2023/11/09 04:29:13;;;;;;;1.10;0.77;;;7.80;99.90;;;8.14;93.98;100063.38;4738762;30;20282;-68
2023/11/09 04:31:47;;;;;;;2.47;1.05;;;8.00;99.90;;;8.28;93.28;100070.44;4754033;30;20587;-69
2023/11/09 04:34:19;;;;;;;1.23;0.90;;;8.10;75.60;;;8.29;92.36;100063.19;4752818;30;20293;-68
2023/11/09 04:36:52;;;;;;;1.70;1.00;;;8.20;1.00;;;8.36;92.11;100052.44;4751641;30;20219;-68
2023/11/09 04:39:29;;;;;;;1.55;0.90;;;8.20;1.00;;;8.33;91.84;100056.38;4751800;30;20438;-68
2023/11/09 04:42:04;;;;;;;1.27;0.82;;;8.20;1.00;;;8.34;91.66;100051.81;4751482;30;20602;-68
2023/11/09 04:44:36;;;;;;;1.30;0.70;;;8.20;1.00;;;8.42;92.21;100038.13;4738630;30;20312;-68
2023/11/09 04:47:11;;;;;;;1.83;0.80;;;8.30;1.00;;;8.56;91.56;100040.59;4753317;30;20200;-68
2023/11/09 04:49:45;;;;;;;1.00;0.70;;;8.30;1.00;;;8.59;89.98;100042.03;4739958;30;20578;-68
2023/11/09 04:52:44;;;;;;;1.35;0.93;;;8.40;99.90;;;8.38;91.75;100026.09;4736344;30;20598;-67
2023/11/09 04:55:20;;;;;;;1.73;1.00;;;8.40;1.00;;;8.44;92.04;100019.88;4736114;30;20462;-67
2023/11/09 05:09:02;;;;;;;8.70;1.83;;;8.50;99.90;;;8.59;89.95;100002.44;4750555;30;20207;-68
2023/11/09 05:11:32;;;;;;;2.55;1.15;;;8.50;99.90;;;8.63;89.70;100005.53;4734974;30;20192;-68
2023/11/09 05:14:04;;;;;;;2.28;1.15;;;8.60;99.90;;;8.68;89.28;100003.03;4732683;30;20319;-68
2023/11/09 05:16:34;;;;;;;2.15;1.30;;;8.60;99.90;;;9.01;87.63;99997.50;4733422;30;20205;-68
2023/11/09 05:19:05;;;;;;;1.40;1.00;;;8.70;99.90;;;8.96;86.52;99989.22;4731872;30;20208;-67
2023/11/09 05:21:35;;;;;;;1.38;0.85;;;8.80;99.90;;;8.93;87.42;99990.50;4748878;30;20207;-67
2023/11/09 05:24:05;;;;;;;1.23;0.80;;;8.80;99.90;;;8.88;87.28;99989.47;4735651;30;20224;-69
2023/11/09 05:26:38;;;;;;;1.10;0.70;;;8.80;99.90;;;8.95;86.98;99984.91;4733653;30;20205;-68
2023/11/09 05:29:10;;;;;;;1.20;1.02;;;8.80;99.90;;;8.86;86.71;99981.59;4730482;30;20221;-68
2023/11/09 05:31:44;;;;;;;1.48;0.80;;;8.80;89.20;;;9.06;85.97;99979.66;4746718;30;20230;-69
2023/11/09 05:34:15;;;;;;;3.97;1.15;;;8.80;62.80;;;8.92;85.94;99978.03;4731653;30;20308;-67
2023/11/09 05:36:45;;;;;;;1.20;0.95;;;8.80;11.20;;;8.83;86.95;99982.03;4734551;30;20208;-68
2023/11/09 05:39:15;;;;;;;1.75;1.17;;;8.80;18.20;;;8.95;86.70;99983.03;4748236;30;20212;-68
2023/11/09 05:41:47;;;;;;;1.00;0.80;;;8.80;42.20;;;8.97;86.18;99983.63;4746130;30;20319;-68
2023/11/09 05:44:18;;;;;;;1.40;0.60;;;8.90;28.00;;;8.98;86.22;99982.59;4746576;30;20517;-67
2023/11/09 05:46:49;;;;;;;1.67;0.90;;;8.90;46.00;;;9.02;86.83;99978.41;4735463;30;20200;-66
2023/11/09 05:49:19;;;;;;;1.58;0.90;;;8.90;44.80;;;9.11;86.07;99977.13;4749280;30;20303;-67
2023/11/09 05:51:50;;;;;;;2.40;1.13;;;9.00;18.50;;;9.18;86.03;99973.56;4734483;30;20677;-68
2023/11/09 05:54:24;;;;;;;1.73;0.75;;;9.10;1.00;;;9.09;85.73;99968.44;4748266;30;20456;-68
2023/11/09 05:56:54;;;;;;;1.57;0.90;;;9.00;1.00;;;9.09;85.35;99957.66;4746718;30;20680;-68
2023/11/09 05:59:28;;;;;;;1.00;0.80;;;9.00;1.00;;;9.35;84.21;99961.22;4729267;30;20455;-68
2023/11/09 06:01:58;;;;;;;2.40;1.35;;;9.10;1.00;;;9.37;83.76;99962.69;4730466;30;20204;-68
2023/11/09 06:04:31;;;;;;;1.55;0.90;;;9.20;1.00;;;9.31;83.61;99960.00;4745000;30;20232;-68
2023/11/09 06:07:02;;;;;;;1.30;1.08;;;9.20;1.00;;;9.35;83.27;99966.63;4746650;30;20231;-68
2023/11/09 06:09:33;;;;;;;2.25;1.15;;;9.20;1.00;;;9.37;82.78;99959.16;4731231;30;20200;-67
2023/11/09 06:12:05;;;;;;;1.63;1.00;;;9.30;1.00;;;9.38;82.94;99958.94;4733040;30;20205;-69
2023/11/09 06:14:36;;;;;;;2.08;1.00;;;9.30;1.00;;;9.40;82.46;99959.53;4746163;30;20457;-68
2023/11/09 06:17:07;;;;;;;0.90;0.60;;;9.30;1.00;;;9.46;82.74;99968.63;4746409;30;20220;-67
2023/11/09 06:19:37;;;;;;;1.30;0.90;;;9.30;1.00;;;9.53;81.24;99958.63;4731111;30;20478;-69
2023/11/09 06:22:09;;;;;;;1.70;0.70;;;9.40;1.00;;;9.67;80.05;99965.59;4733152;30;20457;-67
2023/11/09 06:24:40;;;;;;;1.53;1.37;;;9.50;1.00;;;9.72;80.50;99964.94;4746693;30;20316;-67
2023/11/09 06:27:10;;;;;;;2.30;1.30;;;9.50;1.00;;;9.76;80.54;99958.88;4731744;30;20504;-67
2023/11/09 06:29:43;;;;;;;1.55;1.25;;;9.60;1.00;;;9.69;79.84;99968.06;4745281;30;20219;-67
2023/11/09 06:32:13;;;;;;;1.77;1.20;;;9.60;1.00;;;9.86;78.94;99964.63;4746510;30;20212;-68
2023/11/09 06:34:43;;;;;;;3.03;1.27;;;9.70;1.00;;;9.78;78.81;99966.78;4727726;30;20577;-67
2023/11/09 06:37:14;;;;;;;1.60;0.83;;;9.60;1.00;;;9.88;79.31;99961.69;4744874;30;20522;-68
2023/11/09 06:39:48;;;;;;;1.13;0.80;;;9.70;1.00;;;9.98;78.10;99962.84;4731366;30;20447;-67
2023/11/09 06:42:19;;;;;;;1.40;0.80;;;9.80;1.00;;;9.91;77.55;99951.28;4731862;30;20474;-68
2023/11/09 06:44:52;;;;;;;1.00;0.70;;;9.80;1.00;;;10.06;77.50;99952.81;4747201;30;20449;-68
2023/11/09 06:47:23;;;;;;;1.67;0.93;;;9.80;99.90;;;10.10;76.69;99944.03;4734555;30;20466;-67
2023/11/09 06:49:53;;;;;;;1.13;0.80;;;9.90;99.90;;;10.07;76.50;99954.47;4735949;30;20874;-68
2023/11/09 06:52:23;;;;;;;1.33;0.90;;;9.90;99.90;;;10.01;76.42;99951.63;4735528;30;20989;-68
2023/11/09 06:54:53;;;;;;;3.90;1.47;;;9.90;99.90;;;10.11;76.24;99950.28;4749374;30;20466;-68
2023/11/09 06:57:26;;;;;;;1.53;1.10;;;9.90;99.90;;;10.14;75.97;99956.06;4734984;30;20461;-67
2023/11/09 06:59:59;;;;;;;2.00;0.90;;;10.00;99.90;;;10.23;75.52;99953.94;4734501;30;20462;-69
2023/11/09 07:02:29;;;;;;;1.93;1.10;;;10.00;99.90;;;10.38;74.38;99966.06;4746747;30;20437;-69
2023/11/09 07:04:59;;;;;;;2.70;0.60;;;10.20;99.90;;;10.26;75.34;99954.28;4748712;30;20553;-69
2023/11/09 07:07:30;;;;;;;1.27;0.80;;;10.10;99.90;;;10.31;76.23;99956.38;4748486;30;20910;-67
2023/11/09 07:10:02;;;;;;;2.17;1.17;;;10.10;1.00;;;10.37;75.14;99950.03;4735477;30;20806;-69
2023/11/09 07:12:32;;;;;;;3.00;1.03;;;10.10;1.00;;;10.44;75.47;99948.09;4735716;30;20425;-68
2023/11/09 07:15:07;;;;;;;1.83;0.90;;;10.20;1.00;;;10.43;74.40;99949.16;4735371;30;20432;-70
2023/11/09 07:17:37;;;;;;;1.53;0.97;;;10.20;1.00;;;10.33;75.08;99957.78;4734615;30;20778;-68
2023/11/09 07:20:12;;;;;;;1.50;1.20;;;10.20;1.00;;;10.45;74.20;99949.78;4748835;30;20437;-68
2023/11/09 07:22:43;;;;;;;3.23;1.00;;;10.20;1.00;;;10.55;73.94;99950.09;4734145;30;20529;-70
2023/11/09 07:25:14;;;;;;;1.80;1.50;;;10.30;1.00;;;10.49;74.24;99953.66;4733973;30;20435;-68
2023/11/09 07:27:45;;;;;;;1.40;0.90;;;10.30;1.00;;;10.44;74.14;99950.81;4749058;30;20436;-68
2023/11/09 07:30:18;;;;;;;5.73;1.17;;;10.30;1.00;;;10.39;74.24;99947.94;4733853;30;20462;-68
2023/11/09 07:32:49;;;;;;;2.87;1.40;;;10.20;1.00;;;10.57;75.60;99950.66;4732601;30;20433;-69
2023/11/09 07:35:20;;;;;;;1.10;0.70;;;10.30;1.00;;;10.63;73.29;99949.78;4732333;30;20451;-69
2023/11/09 07:37:53;;;;;;;2.43;0.93;;;10.40;1.00;;;10.49;73.36;99942.03;4733956;30;20417;-69
2023/11/09 07:40:23;;;;;;;1.30;0.77;;;10.30;1.00;;;10.56;73.59;99953.59;4733563;30;20437;-69
2023/11/09 07:42:54;;;;;;;3.97;1.00;;;10.40;1.00;;;10.52;72.95;99946.97;4735152;30;20569;-68
2023/11/09 07:45:26;;;;;;;1.07;0.80;;;10.30;1.00;;;10.71;72.29;99956.75;4733310;30;20822;-67
2023/11/09 07:47:56;;;;;;;1.37;0.80;;;10.40;1.00;;;10.57;72.73;99955.25;4734829;30;20451;-68
2023/11/09 07:50:26;;;;;;;1.67;0.93;;;10.40;1.00;;;10.53;72.36;99946.75;4733283;30;20989;-69
2023/11/09 07:52:56;;;;;;;1.30;0.70;;;10.40;1.00;;;10.60;71.79;99942.09;4734257;30;20474;-68
2023/11/09 07:55:29;;;;;;;1.90;0.90;;;10.40;1.00;;;10.62;72.00;99947.28;4733178;30;20785;-67
2023/11/09 07:58:03;;;;;;;1.70;0.97;;;10.40;1.00;;;10.67;71.78;99940.16;4734417;30;20529;-68
2023/11/09 08:00:35;;;;;;;1.00;0.80;;;10.40;1.00;;;10.77;71.80;99935.03;4747553;30;20996;-68
2023/11/09 08:03:06;;;;;;;1.47;0.70;;;10.50;1.00;;;10.66;71.45;99943.91;4731159;30;20544;-68
2023/11/09 08:05:40;;;;;;;2.63;1.23;;;10.50;99.90;;;10.68;72.39;99940.97;4747836;30;20455;-70
2023/11/09 08:08:14;;;;;;;2.53;2.20;;;10.50;99.90;;;10.69;71.76;99935.34;4745894;30;20457;-68
2023/11/09 08:10:45;;;;;;;2.00;0.93;;;10.50;1.00;;;10.90;72.01;99934.03;4748543;30;20458;-68
2023/11/09 08:13:16;;;;;;;1.87;1.30;;;10.60;1.00;;;10.75;71.57;99931.72;4748177;30;20494;-68
2023/11/09 08:15:48;;;;;;;3.27;1.27;;;10.60;1.00;;;10.76;71.14;99927.13;4745594;30;20967;-68
2023/11/09 08:18:17;;;;;;;2.33;0.90;;;10.60;1.00;;;10.85;71.57;99923.06;4733117;30;20462;-68
2023/11/09 08:20:47;;;;;;;1.67;0.77;;;10.60;1.00;;;10.85;71.03;99917.66;4733714;30;20440;-67
2023/11/09 08:23:18;;;;;;;2.30;0.70;;;10.60;99.90;;;10.76;70.72;99924.44;4747634;30;20461;-67
2023/11/09 08:25:49;;;;;;;1.10;0.70;;;10.60;64.10;;;10.76;70.72;99921.72;4748049;30;20474;-67
2023/11/09 08:28:19;;;;;;;3.07;0.93;;;10.60;99.90;;;10.85;70.62;99906.81;4747451;30;20796;-68
2023/11/09 08:30:53;;;;;;;2.30;0.77;;;10.60;99.90;;;10.99;70.11;99915.63;4733448;30;20541;-68
2023/11/09 08:33:24;;;;;;;3.37;2.73;;;10.70;99.90;;;11.00;70.01;99911.84;4747141;30;21021;-69
2023/11/09 08:35:55;;;;;;;1.87;0.90;;;10.80;99.90;;;11.17;68.73;99911.00;4748551;30;20549;-67
2023/11/09 08:38:25;;;;;;;1.20;0.87;;;10.90;99.90;;;11.10;68.83;99917.53;4736810;30;20443;-69
2023/11/09 08:40:57;;;;;;;2.80;0.90;;;10.80;99.90;;;11.35;67.89;99904.69;4737768;30;20417;-67
2023/11/09 08:43:26;;;;;;;1.13;1.00;;;11.00;1.00;;;11.22;67.66;99904.88;4735322;30;20552;-67
2023/11/09 08:46:02;;;;;;;1.10;0.80;;;11.00;99.90;;;11.37;67.46;99904.47;4735737;30;20466;-68
2023/11/09 08:48:32;;;;;;;5.30;0.93;;;11.00;1.00;;;11.40;66.73;99904.81;4750491;30;20454;-67
2023/11/09 08:51:07;;;;;;;0.97;0.70;;;11.10;1.00;;;11.36;66.85;99909.03;4735478;30;20454;-67
2023/11/09 08:53:40;;;;;;;0.90;0.60;;;11.10;1.00;;;11.45;66.46;99904.94;4734331;30;20448;-68
2023/11/09 08:56:12;;;;;;;1.87;0.80;;;11.20;1.00;;;11.75;65.79;99903.03;4748113;30;20557;-67
2023/11/09 08:58:43;;;;;;;1.20;0.80;;;11.30;1.00;;;11.46;65.80;99905.78;4729322;30;20462;-67
2023/11/09 09:01:17;;;;;;;1.10;0.70;;;11.30;93.20;;;11.49;65.43;99908.00;4732018;30;20477;-67
2023/11/09 09:03:51;;;;;;;3.10;1.30;;;11.30;1.00;;;11.77;65.40;99905.50;4730247;30;20576;-69
2023/11/09 09:06:21;;;;;;;2.27;1.00;;;11.40;16.70;;;11.80;64.63;99912.34;4732534;30;20462;-68
2023/11/09 09:08:52;;;;;;;1.60;1.00;;;11.50;99.90;;;11.89;64.31;99905.53;4730837;30;20465;-67
2023/11/09 09:11:23;;;;;;;2.57;1.17;;;11.60;1.00;;;11.84;64.34;99900.81;4732368;30;20444;-68
2023/11/09 09:13:53;;;;;;;2.20;1.27;;;11.60;99.90;;;11.80;64.19;99896.91;4746748;30;20486;-69
2023/11/09 09:16:26;;;;;;;3.20;0.80;;;11.50;1.00;;;12.06;63.52;99895.63;4731972;30;20792;-67
2023/11/09 09:18:56;;;;;;;2.80;1.10;;;;;;;12.43;63.36;99894.31;4746171;30;20893;-69
2023/11/09 09:21:27;;;;;;;1.47;1.30;;;12.00;1.00;;;12.52;61.60;99895.59;4733540;30;20467;-68
2023/11/09 09:23:58;;;;;;;2.10;1.00;;;12.10;99.90;;;12.50;61.04;99900.41;4747004;30;20544;-67
2023/11/09 09:26:30;;;;;;;1.43;1.00;;;12.10;1.00;;;12.30;61.67;99889.13;4732268;30;20986;-67
2023/11/09 09:29:01;;;;;;;2.37;1.43;;;;;;;12.39;61.24;99895.03;4732230;30;20544;-68
2023/11/09 09:31:34;;;;;;;2.13;0.90;;;12.00;1.00;;;12.39;60.86;99898.53;4746915;30;20998;-67
2023/11/09 09:34:10;;;;;;;2.23;0.93;;;12.20;99.90;;;12.33;60.95;99899.50;4732429;30;20478;-69
2023/11/09 09:36:44;;;;;;;1.40;0.80;;;12.20;79.50;;;12.25;61.91;99899.84;4743252;30;20445;-67
2023/11/09 09:39:15;;;;;;;1.57;1.00;;;;;;;12.28;60.88;99899.41;4745740;30;20475;-67
2023/11/09 09:41:51;;;;;;;2.37;1.00;;;;;;;12.32;61.49;99895.16;4729906;30;20938;-67
2023/11/09 09:44:22;;;;;;;1.23;1.00;;;;;;;12.28;61.31;99893.16;4744465;30;20493;-66
2023/11/09 09:46:59;;;;;;;5.23;0.80;;;;;;;12.44;61.23;99887.00;4732125;30;20477;-66
2023/11/09 09:49:29;;;;;;;1.00;0.80;;;;;;;12.45;60.84;99884.03;4746184;30;20481;-67
2023/11/09 09:52:01;;;;;;;1.70;1.13;;;;;;;12.73;59.36;99887.88;4732428;30;20428;-68
2023/11/09 09:54:33;;;;;;;1.10;0.70;;;;;;;12.54;59.63;99881.75;4731607;30;20456;-68
2023/11/09 09:57:04;;;;;;;1.60;1.20;;;;;;;12.59;59.29;99885.41;4731574;30;20834;-67
2023/11/09 09:59:35;;;;;;;1.10;0.70;;;;;;;12.69;59.08;99884.78;4732490;30;20969;-68
2023/11/09 10:02:15;;;;;;;1.00;0.70;;;;;;;12.74;58.56;99892.22;4732667;30;20435;-67
2023/11/09 10:04:46;;;;;;;2.37;0.90;;;;;;;12.59;57.93;99881.88;4742786;30;20502;-68
2023/11/09 10:07:17;;;;;;;3.20;2.90;;;;;;;12.70;58.46;99893.78;4746134;30;20467;-67
2023/11/09 10:09:50;;;;;;;1.10;0.80;;;;;;;12.54;58.37;99890.72;4729119;30;20542;-67
2023/11/09 10:12:21;;;;;;;1.07;0.80;;;;;;;12.66;58.49;99889.88;4743632;30;20463;-67
2023/11/09 10:14:51;;;;;;;1.27;0.93;;;;;;;12.67;58.18;99886.94;4746095;30;20484;-68
2023/11/09 10:17:23;;;;;;;1.47;0.80;;;;;;;12.66;57.90;99887.16;4730781;30;20445;-67
2023/11/09 10:19:53;;;;;;;1.20;1.00;;;;;;;12.56;58.81;99880.47;4732373;30;20457;-65
2023/11/09 10:22:26;;;;;;;2.13;0.70;;;;;;;12.57;58.16;99884.84;4731613;30;20439;-68
2023/11/09 10:24:57;;;;;;;1.30;1.00;;;;;;;12.53;58.23;99877.41;4731512;30;20572;-68
2023/11/09 10:27:30;;;;;;;1.57;1.17;;;;;;;12.44;57.96;99876.16;4745590;30;20441;-68
2023/11/09 10:30:02;;;;;;;1.33;0.80;;;;;;;12.24;59.11;99875.69;4746072;30;20444;-68
2023/11/09 10:32:36;;;;;;;9.70;0.90;;;;;;;12.15;59.14;99880.66;4732543;30;20447;-67
2023/11/09 10:35:07;;;;;;;4.10;1.23;;;;;;;12.14;59.14;99877.13;4731327;30;20462;-67
2023/11/09 10:37:40;;;;;;;2.07;0.80;;;;;;;11.97;59.44;99867.22;4745412;30;20840;-68
2023/11/09 10:40:14;;;;;;;1.20;0.97;;;;;;;11.91;59.70;99865.47;4744325;30;20479;-68
2023/11/09 10:42:46;;;;;;;1.20;0.80;;;;;;;12.11;59.49;99865.91;4733470;30;20873;-68
2023/11/09 10:45:25;;;;;;;1.40;0.90;;;;;;;12.16;59.29;99863.31;4731635;30;20554;-68
2023/11/09 10:47:58;;;;;;;1.10;0.67;;;;;;;12.31;59.58;99858.22;4733610;30;20421;-67
2023/11/09 10:50:31;;;;;;;1.53;1.13;;;;;;;12.43;59.29;99861.75;4747740;30;20437;-68
2023/11/09 10:53:04;;;;;;;2.00;1.00;;;;;;;12.38;58.99;99856.22;4733180;30;21228;-68
2023/11/09 10:55:36;;;;;;;2.07;1.90;;;;;;;12.49;58.81;99852.63;4732959;30;20453;-68
2023/11/09 10:58:12;;;;;;;3.47;1.53;;;;;;;12.50;58.60;99859.72;4731073;30;20909;-68
2023/11/09 11:00:43;;;;;;;1.20;0.90;;;;;;;12.45;58.42;99846.03;4726319;30;20582;-67
2023/11/09 11:03:25;;;;;;;3.03;1.13;;;;;;;12.29;59.09;99845.97;4730505;30;20491;-67
2023/11/09 11:05:59;;;;;;;1.87;1.13;;;;;;;12.47;58.48;99859.38;4728610;30;20542;-66
2023/11/09 11:08:35;;;;;;;2.03;0.90;;;;;;;12.56;58.67;99852.50;4745245;30;20481;-68
2023/11/09 11:11:06;;;;;;;1.47;1.13;;;;;;;12.46;58.59;99842.28;4731202;30;20437;-68
2023/11/09 11:13:40;;;;;;;1.53;0.83;;;;;;;12.55;58.78;99848.97;4731620;30;20510;-67
2023/11/09 11:16:36;;;;;;;5.10;0.90;;;;;;;12.53;58.66;99851.13;4744390;30;20449;-69
2023/11/09 11:19:35;;;;;;;2.70;1.50;;;;;;;12.68;58.46;99838.91;4731362;30;20553;-67